x

San Francisco - 18nm West Of San Francisco, Ca (46026) Wave Buoy

1:50am - Fri 12th Feb 2016 All times are PST. -8 hours from GMT.

  • Sig Wave height 9.2ft
  • Swell Direction
  • Peak Period 19s
  • Average Period 12s
  • Wind
    4mph, 7mph gusts
  • Sea Temp 56°f
  • Air Temp 54°f
  • Sea Pressure 1022.2mb
  • San Francisco - 18nm West Of San Francisco, Ca
  • San Francisco - 18nm West Of San Francisco, Ca

More Historic Weather Station data

Upgrade to MSW Pro to gain access to the past 30 days of data for over 8000 Wavebouys and Weather Stations around the globe.

Join Pro

Comparision Forecast

View Surf forecast
   
Fri 02/12 1:50am 9ft 19s 12s 4 7 mph 1022.2mb 56f 54f
12:50am 10ft 19s 12s 7 9 mph 1022.7mb 56f 54f
Thu 02/11 11:50pm 10ft 19s 12s 11 13 mph 1022.7mb 56f 53f
10:50pm 8ft 19s 10s 11 13 mph 1022.6mb 56f 53f
9:50pm 11ft 19s 12s 13 18 mph 1022.5mb 56f 53f
8:50pm 11ft 19s 13s 11 13 mph 1022.1mb 56f 53f
7:50pm 9ft 19s 11s 11 16 mph 1021.9mb 56f 53f
6:50pm 8.5ft 19s 12s 11 16 mph 1021.4mb 56f 53f
5:50pm 9ft 21s 12s 11 13 mph 1021.1mb 56f 54f
4:50pm 9ft 21s 13s 9 13 mph 1020.7mb 56f 54f
3:50pm 7ft 21s 11s 9 11 mph 1020.3mb 56f 56f
2:50pm 7.5ft 21s 12s 7 9 mph 1020.1mb 56f 56f
1:50pm 7ft 21s 11s 2 4 mph 1019.7mb 56f 56f
12:50pm 7ft 21s 11s 7 11 mph 1020.5mb 56f 55f
11:50am 7ft 21s 10s 2
mph
1020.5mb 56f 54f
10:50am 7ft 21s 10s 7 9 mph 1021.5mb 56f 53f
9:50am 6ft 21s 9s 9 11 mph 1021.3mb 55f 54f
8:50am 6ft 21s 9s 2 4 mph 1020.9mb 55f 56f
7:50am 5.5ft 24s 8s  -  2 mph 1020.3mb 55f 55f
3:50am 5ft 13s 9s 7 9 mph 1019.7mb 56f 54f
2:50am 4.5ft 13s 8s 4 7 mph 1019.7mb 56f 56f
1:50am 5ft 11s 8s 4 7 mph 1020mb 56f 55f
12:50am 5ft 13s 8s 7
mph
1020.4mb 56f 56f
Wed 02/10 11:50pm 4.5ft 12s 8s 11 13 mph 1020.8mb 56f 56f
10:50pm 4.5ft 12s 8s 9 11 mph 1021mb 55f 56f
9:50pm 4.5ft 12s 8s 7 9 mph 1020.7mb 55f 56f
8:50pm 4.5ft 13s 8s 7 9 mph 1020.9mb 55f 56f
7:50pm 4.5ft 11s 8s 7 9 mph 1021mb 55f 56f
6:50pm 4.5ft 13s 8s 9 11 mph 1021.2mb 55f 56f
5:50pm 4.5ft 11s 8s 11 13 mph 1021.4mb 55f 56f
4:50pm 4.5ft 13s 7s 11 13 mph 1021.7mb 55f 56f
3:50pm 4.5ft 12s 7s 9 11 mph 1022.1mb 55f 56f
2:50pm 4.5ft 12s 6s 11 13 mph 1022.4mb 55f 56f
1:50pm 4.5ft 12s 7s 16 18 mph 1023mb 55f 55f
12:50pm 4.5ft 13s 7s 11 16 mph 1023.8mb 55f 56f
11:50am 4.5ft 12s 7s 7 9 mph 1024.5mb 55f 56f
10:50am 4ft 13s 9s 13 18 mph 1025.7mb 55f 55f
9:50am 4ft 13s 9s 7 9 mph 1025.4mb 55f 56f
8:50am 4ft 12s 8s  -  2 mph 1024.5mb 55f 56f
7:50am 4ft 14s 8s 2 9 mph 1024.2mb 55f 56f
6:50am 4.5ft 13s 9s 7
mph
1023.6mb 55f 56f
5:50am 4.5ft 12s 10s 7 9 mph 1023.4mb 55f 55f
4:50am 4.5ft 13s 10s 9
mph
1023.4mb 55f 56f
3:50am 4.5ft 13s 11s 9
mph
1023.3mb 55f 55f
2:50am 4.5ft 12s 11s 4 7 mph 1023.1mb 55f 56f
1:50am 4.5ft 12s 11s 9 11 mph 1022.5mb 55f 56f
12:50am 4.5ft 13s 11s 9
mph
1022.6mb 55f 57f
Tue 02/09 11:50pm 4.5ft 13s 11s 9 11 mph 1022mb 55f 59f
10:50pm 4ft 13s 11s 9 11 mph 1021.7mb 55f 59f
9:50pm 4.5ft 13s 10s 4 7 mph 1021.6mb 55f 59f
8:50pm 5ft 14s 11s 4 7 mph 1021mb 55f 56f
7:50pm 4.5ft 14s 11s 4
mph
1021.3mb 55f 56f
6:50pm 5ft 14s 11s 2 7 mph 1021.2mb 55f 56f
5:50pm 5ft 14s 11s 7 9 mph 1021.2mb 55f 57f
4:50pm 5.5ft 14s 11s 9
mph
1021.4mb 55f 57f
3:50pm 5ft 14s 10s 9 11 mph 1021.4mb 55f 58f
2:50pm 5ft 14s 9s 4 7 mph 1020.9mb 55f 64f
1:50pm 5ft 14s 8s 11 16 mph 1020.4mb 55f 62f
12:50pm 6ft 14s 8s 16 18 mph 1020.4mb 55f 61f
11:50am 6ft 14s 9s 20 25 mph 1020.6mb 55f 60f
10:50am 7ft 14s 10s 18 22 mph 1021.6mb 55f 59f
9:50am 6ft 15s 9s 18 20 mph 1022.4mb 55f 60f
8:50am 6.5ft 15s 9s 18 20 mph 1022.5mb 55f 59f
7:50am 6ft 14s 10s 13 18 mph 1021.9mb 55f 59f
6:50am 8ft 14s 11s 16 20 mph 1021.6mb 55f 59f
5:50am 7ft 15s 10s 13 18 mph 1021.4mb 55f 59f
4:50am 7ft 15s 11s 13 16 mph 1020.8mb 55f 59f
3:50am 7ft 15s 11s 13 16 mph 1021mb 55f 59f
2:50am 6.5ft 15s 11s 11 13 mph 1021.1mb 55f 59f
1:50am 6.5ft 15s 12s 13 16 mph 1021mb 55f 60f
12:50am 6.5ft 15s 12s 11 13 mph 1021.1mb 55f 60f
Mon 02/08 11:50pm 6.5ft 14s 11s 11 13 mph 1021.2mb 55f 61f
10:50pm 6ft 15s 11s 11 16 mph 1021.1mb 55f 61f
9:50pm 6.5ft 15s 12s 13 18 mph 1021mb 55f 62f
8:50pm 6ft 16s 11s 11 16 mph 1021.2mb 55f 61f
7:50pm 6ft 16s 12s 11 13 mph 1021.2mb 55f 62f
6:50pm 6ft 16s 11s 9 11 mph 1021mb 55f 62f
5:50pm 5ft 16s 9s 13 16 mph 1020.6mb 55f 64f
4:50pm 7ft 16s 11s 16 18 mph 1020.6mb 55f 65f
3:50pm 6ft 16s 10s 13 16 mph 1020.7mb 55f 63f
2:50pm 6ft 17s 9s 13 16 mph 1020.6mb 55f 62f
1:50pm 5.5ft 17s 7s 18 20 mph 1020.8mb 55f 63f
12:50pm 5ft 17s 7s 16 20 mph 1021.4mb 55f 61f
11:50am 4.5ft 17s 6s 20 22 mph 1022.2mb 55f 62f